sensor_id;sensor_type;location;lat;lon;timestamp;temperature;humidity
14277;DHT22;7222;57.346;12.150;2023-02-02T00:01:43;2.40;99.90
14277;DHT22;7222;57.346;12.150;2023-02-02T00:04:15;2.30;99.90
14277;DHT22;7222;57.346;12.150;2023-02-02T00:06:42;2.20;99.90
14277;DHT22;7222;57.346;12.150;2023-02-02T00:09:13;2.40;99.90
14277;DHT22;7222;57.346;12.150;2023-02-02T00:11:40;2.30;99.90
14277;DHT22;7222;57.346;12.150;2023-02-02T00:14:07;2.20;99.90
14277;DHT22;7222;57.346;12.150;2023-02-02T00:16:40;2.20;99.90
14277;DHT22;7222;57.346;12.150;2023-02-02T00:19:09;2.20;99.90
14277;DHT22;7222;57.346;12.150;2023-02-02T00:21:36;2.20;99.90
14277;DHT22;7222;57.346;12.150;2023-02-02T00:24:04;2.20;99.90
14277;DHT22;7222;57.346;12.150;2023-02-02T00:26:33;2.20;99.90
14277;DHT22;7222;57.346;12.150;2023-02-02T00:29:00;2.20;99.90
14277;DHT22;7222;57.346;12.150;2023-02-02T00:31:27;2.20;99.90
14277;DHT22;7222;57.346;12.150;2023-02-02T00:33:54;2.10;99.90
14277;DHT22;7222;57.346;12.150;2023-02-02T00:36:21;2.20;99.90
14277;DHT22;7222;57.346;12.150;2023-02-02T00:38:49;2.10;99.90
14277;DHT22;7222;57.346;12.150;2023-02-02T00:41:17;2.10;99.90
14277;DHT22;7222;57.346;12.150;2023-02-02T00:43:46;1.90;99.90
14277;DHT22;7222;57.346;12.150;2023-02-02T00:46:34;2.00;99.90
14277;DHT22;7222;57.346;12.150;2023-02-02T00:49:03;2.10;99.90
14277;DHT22;7222;57.346;12.150;2023-02-02T00:51:30;2.00;99.90
14277;DHT22;7222;57.346;12.150;2023-02-02T00:53:57;2.00;99.90
14277;DHT22;7222;57.346;12.150;2023-02-02T00:56:24;2.00;99.90
14277;DHT22;7222;57.346;12.150;2023-02-02T00:58:52;1.90;99.90
14277;DHT22;7222;57.346;12.150;2023-02-02T01:01:20;1.90;99.90
14277;DHT22;7222;57.346;12.150;2023-02-02T01:03:48;1.90;99.90
14277;DHT22;7222;57.346;12.150;2023-02-02T01:06:15;1.80;99.90
14277;DHT22;7222;57.346;12.150;2023-02-02T01:08:42;1.90;99.90
14277;DHT22;7222;57.346;12.150;2023-02-02T01:11:09;1.90;99.90
14277;DHT22;7222;57.346;12.150;2023-02-02T01:13:36;1.90;99.90
14277;DHT22;7222;57.346;12.150;2023-02-02T01:16:05;1.80;99.90
14277;DHT22;7222;57.346;12.150;2023-02-02T01:18:32;1.60;99.90
14277;DHT22;7222;57.346;12.150;2023-02-02T01:21:01;1.60;99.90
14277;DHT22;7222;57.346;12.150;2023-02-02T01:23:29;1.70;99.90
14277;DHT22;7222;57.346;12.150;2023-02-02T01:25:58;1.80;99.90
14277;DHT22;7222;57.346;12.150;2023-02-02T01:28:26;1.70;99.90
14277;DHT22;7222;57.346;12.150;2023-02-02T01:30:54;1.70;99.90
14277;DHT22;7222;57.346;12.150;2023-02-02T01:33:23;1.60;99.90
14277;DHT22;7222;57.346;12.150;2023-02-02T01:35:51;1.70;99.90
14277;DHT22;7222;57.346;12.150;2023-02-02T01:38:19;1.70;99.90
14277;DHT22;7222;57.346;12.150;2023-02-02T01:40:48;1.80;99.90
14277;DHT22;7222;57.346;12.150;2023-02-02T01:43:22;1.70;99.90
14277;DHT22;7222;57.346;12.150;2023-02-02T01:45:50;1.70;99.90
14277;DHT22;7222;57.346;12.150;2023-02-02T01:48:17;1.60;99.90
14277;DHT22;7222;57.346;12.150;2023-02-02T01:50:49;1.60;99.90
14277;DHT22;7222;57.346;12.150;2023-02-02T01:53:19;1.70;99.90
14277;DHT22;7222;57.346;12.150;2023-02-02T01:55:48;1.60;99.90
14277;DHT22;7222;57.346;12.150;2023-02-02T01:58:18;1.70;99.90
14277;DHT22;7222;57.346;12.150;2023-02-02T02:00:45;1.60;99.90
14277;DHT22;7222;57.346;12.150;2023-02-02T02:03:15;1.60;99.90
14277;DHT22;7222;57.346;12.150;2023-02-02T02:05:45;1.50;99.90
14277;DHT22;7222;57.346;12.150;2023-02-02T02:08:16;1.50;99.90
14277;DHT22;7222;57.346;12.150;2023-02-02T02:10:43;1.50;99.90
14277;DHT22;7222;57.346;12.150;2023-02-02T02:13:11;1.30;99.90
14277;DHT22;7222;57.346;12.150;2023-02-02T02:15:44;1.50;99.90
14277;DHT22;7222;57.346;12.150;2023-02-02T02:18:38;1.60;99.90
14277;DHT22;7222;57.346;12.150;2023-02-02T02:25:02;1.50;99.90
14277;DHT22;7222;57.346;12.150;2023-02-02T02:34:28;1.50;99.90
14277;DHT22;7222;57.346;12.150;2023-02-02T02:37:04;1.60;99.90
14277;DHT22;7222;57.346;12.150;2023-02-02T02:39:37;1.40;99.90
14277;DHT22;7222;57.346;12.150;2023-02-02T02:42:10;1.40;99.90
14277;DHT22;7222;57.346;12.150;2023-02-02T02:44:39;1.50;99.90
14277;DHT22;7222;57.346;12.150;2023-02-02T02:47:07;1.40;99.90
14277;DHT22;7222;57.346;12.150;2023-02-02T02:49:42;1.50;99.90
14277;DHT22;7222;57.346;12.150;2023-02-02T02:52:10;1.50;99.90
14277;DHT22;7222;57.346;12.150;2023-02-02T02:54:39;1.40;99.90
14277;DHT22;7222;57.346;12.150;2023-02-02T02:57:19;1.50;99.90
14277;DHT22;7222;57.346;12.150;2023-02-02T02:59:56;1.40;99.90
14277;DHT22;7222;57.346;12.150;2023-02-02T03:02:34;1.40;99.90
14277;DHT22;7222;57.346;12.150;2023-02-02T03:05:20;1.30;99.90
14277;DHT22;7222;57.346;12.150;2023-02-02T03:07:54;1.30;99.90
14277;DHT22;7222;57.346;12.150;2023-02-02T03:10:26;1.30;99.90
14277;DHT22;7222;57.346;12.150;2023-02-02T03:12:54;1.20;99.90
14277;DHT22;7222;57.346;12.150;2023-02-02T03:15:22;1.20;99.90
14277;DHT22;7222;57.346;12.150;2023-02-02T03:17:50;1.10;99.90
14277;DHT22;7222;57.346;12.150;2023-02-02T03:20:20;1.10;99.90
14277;DHT22;7222;57.346;12.150;2023-02-02T03:22:47;1.00;99.90
14277;DHT22;7222;57.346;12.150;2023-02-02T03:25:14;1.00;99.90
14277;DHT22;7222;57.346;12.150;2023-02-02T03:27:41;0.90;99.90
14277;DHT22;7222;57.346;12.150;2023-02-02T03:30:10;0.70;99.90
14277;DHT22;7222;57.346;12.150;2023-02-02T03:32:38;0.60;99.90
14277;DHT22;7222;57.346;12.150;2023-02-02T03:35:06;0.60;99.90
14277;DHT22;7222;57.346;12.150;2023-02-02T03:37:34;0.60;99.90
14277;DHT22;7222;57.346;12.150;2023-02-02T03:40:01;0.60;99.90
14277;DHT22;7222;57.346;12.150;2023-02-02T03:42:28;0.60;99.90
14277;DHT22;7222;57.346;12.150;2023-02-02T03:44:55;0.60;99.90
14277;DHT22;7222;57.346;12.150;2023-02-02T03:47:22;0.60;99.90
14277;DHT22;7222;57.346;12.150;2023-02-02T03:49:49;0.50;99.90
14277;DHT22;7222;57.346;12.150;2023-02-02T03:52:16;0.50;99.90
14277;DHT22;7222;57.346;12.150;2023-02-02T03:54:44;0.40;99.90
14277;DHT22;7222;57.346;12.150;2023-02-02T03:57:11;0.30;99.90
14277;DHT22;7222;57.346;12.150;2023-02-02T03:59:38;0.30;99.90
14277;DHT22;7222;57.346;12.150;2023-02-02T04:02:05;0.30;99.90
14277;DHT22;7222;57.346;12.150;2023-02-02T04:04:32;0.10;99.90
14277;DHT22;7222;57.346;12.150;2023-02-02T04:06:59;0.20;99.90
14277;DHT22;7222;57.346;12.150;2023-02-02T04:09:26;0.10;99.90
14277;DHT22;7222;57.346;12.150;2023-02-02T04:11:55;0.10;99.90
14277;DHT22;7222;57.346;12.150;2023-02-02T04:14:22;0.00;99.90
14277;DHT22;7222;57.346;12.150;2023-02-02T04:16:49;0.00;99.90
14277;DHT22;7222;57.346;12.150;2023-02-02T04:19:16;-0.10;99.90
14277;DHT22;7222;57.346;12.150;2023-02-02T04:21:43;-0.30;99.90
14277;DHT22;7222;57.346;12.150;2023-02-02T04:24:11;-0.20;99.90
14277;DHT22;7222;57.346;12.150;2023-02-02T04:26:38;-0.20;99.90
14277;DHT22;7222;57.346;12.150;2023-02-02T04:29:06;-0.30;99.90
14277;DHT22;7222;57.346;12.150;2023-02-02T04:31:34;-0.30;99.90
14277;DHT22;7222;57.346;12.150;2023-02-02T04:34:01;-0.30;99.90
14277;DHT22;7222;57.346;12.150;2023-02-02T04:36:28;-0.30;99.90
14277;DHT22;7222;57.346;12.150;2023-02-02T04:38:55;-0.40;99.90
14277;DHT22;7222;57.346;12.150;2023-02-02T04:41:23;-0.40;99.90
14277;DHT22;7222;57.346;12.150;2023-02-02T04:43:50;-0.60;99.90
14277;DHT22;7222;57.346;12.150;2023-02-02T04:46:19;-0.60;99.90
14277;DHT22;7222;57.346;12.150;2023-02-02T04:48:47;-0.60;99.90
14277;DHT22;7222;57.346;12.150;2023-02-02T04:51:15;-0.70;99.90
14277;DHT22;7222;57.346;12.150;2023-02-02T04:53:43;-0.70;99.90
14277;DHT22;7222;57.346;12.150;2023-02-02T04:56:12;-0.70;99.90
14277;DHT22;7222;57.346;12.150;2023-02-02T04:58:40;-0.70;99.90
14277;DHT22;7222;57.346;12.150;2023-02-02T05:01:11;-0.80;99.90
14277;DHT22;7222;57.346;12.150;2023-02-02T05:03:40;-0.90;99.90
14277;DHT22;7222;57.346;12.150;2023-02-02T05:06:07;-0.80;99.90
14277;DHT22;7222;57.346;12.150;2023-02-02T05:08:34;-0.90;99.90
14277;DHT22;7222;57.346;12.150;2023-02-02T05:11:05;-0.90;99.90
14277;DHT22;7222;57.346;12.150;2023-02-02T05:13:33;-0.90;99.90
14277;DHT22;7222;57.346;12.150;2023-02-02T05:16:00;-0.90;99.90
14277;DHT22;7222;57.346;12.150;2023-02-02T05:18:27;-1.00;99.90
14277;DHT22;7222;57.346;12.150;2023-02-02T05:20:59;-1.10;99.90
14277;DHT22;7222;57.346;12.150;2023-02-02T05:23:27;-1.10;99.90
14277;DHT22;7222;57.346;12.150;2023-02-02T05:25:54;-1.10;99.90
14277;DHT22;7222;57.346;12.150;2023-02-02T05:28:22;-1.30;99.90
14277;DHT22;7222;57.346;12.150;2023-02-02T05:30:49;-1.20;99.90
14277;DHT22;7222;57.346;12.150;2023-02-02T05:33:16;-1.30;99.90
14277;DHT22;7222;57.346;12.150;2023-02-02T05:35:44;-1.30;99.90
14277;DHT22;7222;57.346;12.150;2023-02-02T05:38:12;-1.30;99.90
14277;DHT22;7222;57.346;12.150;2023-02-02T05:40:39;-1.40;99.90
14277;DHT22;7222;57.346;12.150;2023-02-02T05:43:06;-1.40;99.90
14277;DHT22;7222;57.346;12.150;2023-02-02T05:45:33;-1.40;99.90
14277;DHT22;7222;57.346;12.150;2023-02-02T05:48:00;-1.50;99.90
14277;DHT22;7222;57.346;12.150;2023-02-02T05:50:27;-1.50;99.90
14277;DHT22;7222;57.346;12.150;2023-02-02T05:52:54;-1.60;99.90
14277;DHT22;7222;57.346;12.150;2023-02-02T05:55:23;-1.60;99.90
14277;DHT22;7222;57.346;12.150;2023-02-02T05:57:50;-1.60;99.90
14277;DHT22;7222;57.346;12.150;2023-02-02T06:00:17;-1.60;99.90
14277;DHT22;7222;57.346;12.150;2023-02-02T06:02:44;-1.70;99.90
14277;DHT22;7222;57.346;12.150;2023-02-02T06:05:11;-1.70;99.90
14277;DHT22;7222;57.346;12.150;2023-02-02T06:07:38;-1.80;99.90
14277;DHT22;7222;57.346;12.150;2023-02-02T06:10:06;-1.80;99.90
14277;DHT22;7222;57.346;12.150;2023-02-02T06:12:34;-1.80;99.90
14277;DHT22;7222;57.346;12.150;2023-02-02T06:15:01;-1.90;99.90
14277;DHT22;7222;57.346;12.150;2023-02-02T06:17:28;-1.90;99.90
14277;DHT22;7222;57.346;12.150;2023-02-02T06:19:55;-1.90;99.90
14277;DHT22;7222;57.346;12.150;2023-02-02T06:22:22;-1.90;99.90
14277;DHT22;7222;57.346;12.150;2023-02-02T06:24:50;-2.00;99.90
14277;DHT22;7222;57.346;12.150;2023-02-02T06:27:18;-2.10;99.90
14277;DHT22;7222;57.346;12.150;2023-02-02T06:29:46;-2.10;99.90
14277;DHT22;7222;57.346;12.150;2023-02-02T06:32:13;-2.10;99.90
14277;DHT22;7222;57.346;12.150;2023-02-02T06:34:40;-2.10;99.90
14277;DHT22;7222;57.346;12.150;2023-02-02T06:37:07;-2.20;99.90
14277;DHT22;7222;57.346;12.150;2023-02-02T06:39:34;-2.20;99.90
14277;DHT22;7222;57.346;12.150;2023-02-02T06:42:01;-2.20;99.90
14277;DHT22;7222;57.346;12.150;2023-02-02T06:44:28;-2.20;99.90
14277;DHT22;7222;57.346;12.150;2023-02-02T06:46:57;-2.30;99.90
14277;DHT22;7222;57.346;12.150;2023-02-02T06:49:23;-2.40;99.90
14277;DHT22;7222;57.346;12.150;2023-02-02T06:51:50;-2.30;99.90
14277;DHT22;7222;57.346;12.150;2023-02-02T06:54:17;-2.30;99.90
14277;DHT22;7222;57.346;12.150;2023-02-02T06:56:44;-2.40;99.90
14277;DHT22;7222;57.346;12.150;2023-02-02T06:59:11;-2.50;99.90
14277;DHT22;7222;57.346;12.150;2023-02-02T07:01:38;-2.50;99.90
14277;DHT22;7222;57.346;12.150;2023-02-02T07:04:06;-2.50;99.90
14277;DHT22;7222;57.346;12.150;2023-02-02T07:06:33;-2.50;99.90
14277;DHT22;7222;57.346;12.150;2023-02-02T07:09:00;-2.60;99.90
14277;DHT22;7222;57.346;12.150;2023-02-02T07:11:27;-2.60;99.90
14277;DHT22;7222;57.346;12.150;2023-02-02T07:13:55;-2.60;99.90
14277;DHT22;7222;57.346;12.150;2023-02-02T07:16:22;-2.60;99.90
14277;DHT22;7222;57.346;12.150;2023-02-02T07:18:49;-2.70;99.90
14277;DHT22;7222;57.346;12.150;2023-02-02T07:21:20;-2.80;99.90
14277;DHT22;7222;57.346;12.150;2023-02-02T07:23:47;-2.70;99.90
14277;DHT22;7222;57.346;12.150;2023-02-02T07:26:16;-2.80;99.90
14277;DHT22;7222;57.346;12.150;2023-02-02T07:28:44;-2.70;99.90
14277;DHT22;7222;57.346;12.150;2023-02-02T07:31:13;-2.80;99.90
14277;DHT22;7222;57.346;12.150;2023-02-02T07:33:41;-2.70;99.90
14277;DHT22;7222;57.346;12.150;2023-02-02T07:36:08;-2.70;99.90
14277;DHT22;7222;57.346;12.150;2023-02-02T07:38:37;-2.70;99.90
14277;DHT22;7222;57.346;12.150;2023-02-02T07:41:04;-2.70;99.90
14277;DHT22;7222;57.346;12.150;2023-02-02T07:43:31;-2.80;99.90
14277;DHT22;7222;57.346;12.150;2023-02-02T07:45:59;-2.70;99.90
14277;DHT22;7222;57.346;12.150;2023-02-02T07:48:28;-2.70;99.90
14277;DHT22;7222;57.346;12.150;2023-02-02T07:50:58;-2.80;99.90
14277;DHT22;7222;57.346;12.150;2023-02-02T07:53:26;-2.80;99.90
14277;DHT22;7222;57.346;12.150;2023-02-02T07:56:07;-2.80;99.90
14277;DHT22;7222;57.346;12.150;2023-02-02T07:58:34;-2.70;99.90
14277;DHT22;7222;57.346;12.150;2023-02-02T08:01:01;-2.70;99.90
14277;DHT22;7222;57.346;12.150;2023-02-02T08:03:29;-2.70;99.90
14277;DHT22;7222;57.346;12.150;2023-02-02T08:05:57;-2.80;99.90
14277;DHT22;7222;57.346;12.150;2023-02-02T08:08:25;-2.70;99.90
14277;DHT22;7222;57.346;12.150;2023-02-02T08:10:53;-2.70;99.90
14277;DHT22;7222;57.346;12.150;2023-02-02T08:13:21;-2.60;99.90
14277;DHT22;7222;57.346;12.150;2023-02-02T08:15:48;-2.60;99.90
14277;DHT22;7222;57.346;12.150;2023-02-02T08:18:15;-2.60;99.90
14277;DHT22;7222;57.346;12.150;2023-02-02T08:20:42;-2.60;99.90
14277;DHT22;7222;57.346;12.150;2023-02-02T08:23:09;-2.60;99.90
14277;DHT22;7222;57.346;12.150;2023-02-02T08:25:40;-2.70;99.90
14277;DHT22;7222;57.346;12.150;2023-02-02T08:28:07;-2.70;99.90
14277;DHT22;7222;57.346;12.150;2023-02-02T08:30:35;-2.70;99.90
14277;DHT22;7222;57.346;12.150;2023-02-02T08:33:02;-2.70;99.90
14277;DHT22;7222;57.346;12.150;2023-02-02T08:35:29;-2.70;99.90
14277;DHT22;7222;57.346;12.150;2023-02-02T08:37:56;-2.70;99.90
14277;DHT22;7222;57.346;12.150;2023-02-02T08:40:27;-2.60;99.90
14277;DHT22;7222;57.346;12.150;2023-02-02T08:42:54;-2.60;99.90
14277;DHT22;7222;57.346;12.150;2023-02-02T08:45:21;-2.70;99.90
14277;DHT22;7222;57.346;12.150;2023-02-02T08:47:49;-2.60;99.90
14277;DHT22;7222;57.346;12.150;2023-02-02T08:50:17;-2.60;99.90
14277;DHT22;7222;57.346;12.150;2023-02-02T08:52:44;-2.60;99.90
14277;DHT22;7222;57.346;12.150;2023-02-02T08:55:10;-2.60;99.90
14277;DHT22;7222;57.346;12.150;2023-02-02T08:57:38;-2.50;99.90
14277;DHT22;7222;57.346;12.150;2023-02-02T09:00:06;-2.40;99.90
14277;DHT22;7222;57.346;12.150;2023-02-02T09:02:34;-2.30;99.90
14277;DHT22;7222;57.346;12.150;2023-02-02T09:05:02;-2.30;99.90
14277;DHT22;7222;57.346;12.150;2023-02-02T09:07:30;-2.20;99.90
14277;DHT22;7222;57.346;12.150;2023-02-02T09:09:57;-2.20;99.90
14277;DHT22;7222;57.346;12.150;2023-02-02T09:12:25;-2.20;99.90
14277;DHT22;7222;57.346;12.150;2023-02-02T09:14:52;-2.20;99.90
14277;DHT22;7222;57.346;12.150;2023-02-02T09:17:19;-2.30;99.90
14277;DHT22;7222;57.346;12.150;2023-02-02T09:19:46;-2.10;99.90
14277;DHT22;7222;57.346;12.150;2023-02-02T09:22:15;-2.00;99.90
14277;DHT22;7222;57.346;12.150;2023-02-02T09:24:42;-1.80;99.90
14277;DHT22;7222;57.346;12.150;2023-02-02T09:27:10;-1.60;99.90
14277;DHT22;7222;57.346;12.150;2023-02-02T09:29:37;-1.60;99.90
14277;DHT22;7222;57.346;12.150;2023-02-02T09:32:04;-1.20;99.90
14277;DHT22;7222;57.346;12.150;2023-02-02T09:34:31;-0.90;99.90
14277;DHT22;7222;57.346;12.150;2023-02-02T09:36:58;-0.60;99.90
14277;DHT22;7222;57.346;12.150;2023-02-02T09:39:26;-0.20;99.90
14277;DHT22;7222;57.346;12.150;2023-02-02T09:45:00;0.40;99.90
14277;DHT22;7222;57.346;12.150;2023-02-02T09:47:45;0.60;99.90
14277;DHT22;7222;57.346;12.150;2023-02-02T09:50:19;0.70;99.90
14277;DHT22;7222;57.346;12.150;2023-02-02T09:52:50;0.90;99.90
14277;DHT22;7222;57.346;12.150;2023-02-02T09:55:26;0.90;99.90
14277;DHT22;7222;57.346;12.150;2023-02-02T09:57:59;1.70;99.90
14277;DHT22;7222;57.346;12.150;2023-02-02T10:00:32;2.10;99.90
14277;DHT22;7222;57.346;12.150;2023-02-02T10:03:03;2.30;99.90
14277;DHT22;7222;57.346;12.150;2023-02-02T10:05:42;3.20;99.90
14277;DHT22;7222;57.346;12.150;2023-02-02T10:08:16;4.20;99.90
14277;DHT22;7222;57.346;12.150;2023-02-02T10:10:49;5.30;99.90
14277;DHT22;7222;57.346;12.150;2023-02-02T10:13:20;6.30;99.90
14277;DHT22;7222;57.346;12.150;2023-02-02T10:15:53;7.80;99.90
14277;DHT22;7222;57.346;12.150;2023-02-02T10:18:32;8.70;99.90
14277;DHT22;7222;57.346;12.150;2023-02-02T10:21:05;9.00;99.90
14277;DHT22;7222;57.346;12.150;2023-02-02T10:23:34;10.00;99.90
14277;DHT22;7222;57.346;12.150;2023-02-02T10:26:08;10.70;99.90
14277;DHT22;7222;57.346;12.150;2023-02-02T10:28:49;10.90;99.90
14277;DHT22;7222;57.346;12.150;2023-02-02T10:31:27;10.70;99.90
14277;DHT22;7222;57.346;12.150;2023-02-02T10:34:01;12.00;99.90
14277;DHT22;7222;57.346;12.150;2023-02-02T10:36:38;13.40;99.90
14277;DHT22;7222;57.346;12.150;2023-02-02T10:39:18;13.20;99.90
14277;DHT22;7222;57.346;12.150;2023-02-02T10:41:55;14.30;99.90
14277;DHT22;7222;57.346;12.150;2023-02-02T10:44:30;14.10;99.90
14277;DHT22;7222;57.346;12.150;2023-02-02T10:47:03;13.00;99.90
14277;DHT22;7222;57.346;12.150;2023-02-02T10:49:32;14.50;99.90
14277;DHT22;7222;57.346;12.150;2023-02-02T10:52:06;14.90;99.90
14277;DHT22;7222;57.346;12.150;2023-02-02T10:54:54;15.70;99.90
14277;DHT22;7222;57.346;12.150;2023-02-02T10:57:33;16.50;99.90
14277;DHT22;7222;57.346;12.150;2023-02-02T11:00:19;15.90;99.90
14277;DHT22;7222;57.346;12.150;2023-02-02T11:02:47;15.80;99.90
14277;DHT22;7222;57.346;12.150;2023-02-02T11:05:19;15.90;99.90
14277;DHT22;7222;57.346;12.150;2023-02-02T11:08:14;15.80;99.90
14277;DHT22;7222;57.346;12.150;2023-02-02T11:10:43;15.40;99.90
14277;DHT22;7222;57.346;12.150;2023-02-02T11:13:25;14.10;99.90
14277;DHT22;7222;57.346;12.150;2023-02-02T11:16:17;12.10;99.90
14277;DHT22;7222;57.346;12.150;2023-02-02T11:18:45;11.80;99.90
14277;DHT22;7222;57.346;12.150;2023-02-02T11:21:17;11.60;99.90
14277;DHT22;7222;57.346;12.150;2023-02-02T11:23:52;11.90;99.90
14277;DHT22;7222;57.346;12.150;2023-02-02T11:26:20;13.00;99.90
14277;DHT22;7222;57.346;12.150;2023-02-02T11:28:50;13.70;99.90
14277;DHT22;7222;57.346;12.150;2023-02-02T11:31:35;15.20;99.90
14277;DHT22;7222;57.346;12.150;2023-02-02T11:34:19;14.50;99.90
14277;DHT22;7222;57.346;12.150;2023-02-02T11:37:01;15.50;99.90
14277;DHT22;7222;57.346;12.150;2023-02-02T11:39:28;15.50;99.90
14277;DHT22;7222;57.346;12.150;2023-02-02T11:42:04;15.40;99.90
14277;DHT22;7222;57.346;12.150;2023-02-02T11:44:34;15.90;99.90
14277;DHT22;7222;57.346;12.150;2023-02-02T11:47:02;14.50;99.90
14277;DHT22;7222;57.346;12.150;2023-02-02T11:49:32;13.50;99.90
14277;DHT22;7222;57.346;12.150;2023-02-02T11:52:04;13.50;99.90
14277;DHT22;7222;57.346;12.150;2023-02-02T11:54:36;13.40;99.90
14277;DHT22;7222;57.346;12.150;2023-02-02T11:57:07;13.30;99.90
14277;DHT22;7222;57.346;12.150;2023-02-02T11:59:37;12.20;99.90
14277;DHT22;7222;57.346;12.150;2023-02-02T12:02:26;11.60;99.90
14277;DHT22;7222;57.346;12.150;2023-02-02T12:05:12;11.30;99.90
14277;DHT22;7222;57.346;12.150;2023-02-02T12:07:40;10.80;99.90
14277;DHT22;7222;57.346;12.150;2023-02-02T12:10:15;9.70;99.90
14277;DHT22;7222;57.346;12.150;2023-02-02T12:12:50;8.30;99.90
14277;DHT22;7222;57.346;12.150;2023-02-02T12:15:31;7.50;99.90
14277;DHT22;7222;57.346;12.150;2023-02-02T12:18:09;7.80;99.90
14277;DHT22;7222;57.346;12.150;2023-02-02T12:20:45;7.30;99.90
14277;DHT22;7222;57.346;12.150;2023-02-02T12:23:40;6.90;50.10
14277;DHT22;7222;57.346;12.150;2023-02-02T12:26:19;7.30;99.90
14277;DHT22;7222;57.346;12.150;2023-02-02T12:29:00;7.90;99.90
14277;DHT22;7222;57.346;12.150;2023-02-02T12:31:38;7.90;99.90
14277;DHT22;7222;57.346;12.150;2023-02-02T12:34:18;6.80;99.90
14277;DHT22;7222;57.346;12.150;2023-02-02T12:36:51;6.00;99.90
14277;DHT22;7222;57.346;12.150;2023-02-02T12:39:31;5.70;99.90
14277;DHT22;7222;57.346;12.150;2023-02-02T12:45:12;6.20;99.90
14277;DHT22;7222;57.346;12.150;2023-02-02T12:47:50;6.40;99.90
14277;DHT22;7222;57.346;12.150;2023-02-02T12:50:27;6.60;99.90
14277;DHT22;7222;57.346;12.150;2023-02-02T12:53:07;6.00;99.90
14277;DHT22;7222;57.346;12.150;2023-02-02T12:55:45;5.70;99.90
14277;DHT22;7222;57.346;12.150;2023-02-02T12:58:23;5.50;99.90
14277;DHT22;7222;57.346;12.150;2023-02-02T13:01:05;5.80;99.90
14277;DHT22;7222;57.346;12.150;2023-02-02T13:03:47;5.80;99.90
14277;DHT22;7222;57.346;12.150;2023-02-02T13:06:54;5.20;99.90
14277;DHT22;7222;57.346;12.150;2023-02-02T13:09:26;4.70;99.90
14277;DHT22;7222;57.346;12.150;2023-02-02T13:11:58;5.00;99.90
14277;DHT22;7222;57.346;12.150;2023-02-02T13:14:30;5.20;99.90
14277;DHT22;7222;57.346;12.150;2023-02-02T13:17:01;4.70;99.90
14277;DHT22;7222;57.346;12.150;2023-02-02T13:19:35;4.40;99.90
14277;DHT22;7222;57.346;12.150;2023-02-02T13:22:06;4.40;99.90
14277;DHT22;7222;57.346;12.150;2023-02-02T13:24:37;4.60;99.90
14277;DHT22;7222;57.346;12.150;2023-02-02T13:27:10;5.30;99.90
14277;DHT22;7222;57.346;12.150;2023-02-02T13:29:41;5.90;99.90
14277;DHT22;7222;57.346;12.150;2023-02-02T13:32:16;5.70;99.90
14277;DHT22;7222;57.346;12.150;2023-02-02T13:34:50;5.30;99.90
14277;DHT22;7222;57.346;12.150;2023-02-02T13:37:24;5.30;99.90
14277;DHT22;7222;57.346;12.150;2023-02-02T13:39:55;4.80;99.90
14277;DHT22;7222;57.346;12.150;2023-02-02T13:42:31;4.30;99.90
14277;DHT22;7222;57.346;12.150;2023-02-02T13:45:05;4.50;99.90
14277;DHT22;7222;57.346;12.150;2023-02-02T13:47:43;4.60;99.90
14277;DHT22;7222;57.346;12.150;2023-02-02T13:50:16;4.70;99.90
14277;DHT22;7222;57.346;12.150;2023-02-02T13:52:57;4.90;99.90
14277;DHT22;7222;57.346;12.150;2023-02-02T13:58:40;5.00;99.90
14277;DHT22;7222;57.346;12.150;2023-02-02T14:01:12;4.70;99.90
14277;DHT22;7222;57.346;12.150;2023-02-02T14:03:40;5.10;99.90
14277;DHT22;7222;57.346;12.150;2023-02-02T14:06:12;5.40;99.90
14277;DHT22;7222;57.346;12.150;2023-02-02T14:08:46;5.40;99.90
14277;DHT22;7222;57.346;12.150;2023-02-02T14:11:20;5.40;99.90
14277;DHT22;7222;57.346;12.150;2023-02-02T14:13:49;5.50;99.90
14277;DHT22;7222;57.346;12.150;2023-02-02T14:16:50;5.50;99.90
14277;DHT22;7222;57.346;12.150;2023-02-02T14:19:49;5.70;99.90
14277;DHT22;7222;57.346;12.150;2023-02-02T14:22:23;5.80;99.90
14277;DHT22;7222;57.346;12.150;2023-02-02T14:28:10;5.50;99.90
14277;DHT22;7222;57.346;12.150;2023-02-02T14:30:38;5.70;99.90
14277;DHT22;7222;57.346;12.150;2023-02-02T14:33:36;5.90;99.90
14277;DHT22;7222;57.346;12.150;2023-02-02T14:36:11;6.30;99.90
14277;DHT22;7222;57.346;12.150;2023-02-02T14:39:09;6.60;99.90
14277;DHT22;7222;57.346;12.150;2023-02-02T14:42:03;6.60;99.90
14277;DHT22;7222;57.346;12.150;2023-02-02T14:45:15;6.70;99.90
14277;DHT22;7222;57.346;12.150;2023-02-02T14:47:49;6.60;99.90
14277;DHT22;7222;57.346;12.150;2023-02-02T14:50:24;6.60;99.90
14277;DHT22;7222;57.346;12.150;2023-02-02T14:53:03;6.40;99.90
14277;DHT22;7222;57.346;12.150;2023-02-02T14:55:33;6.10;99.90
14277;DHT22;7222;57.346;12.150;2023-02-02T14:58:03;5.80;99.90
14277;DHT22;7222;57.346;12.150;2023-02-02T15:00:33;5.50;99.90
14277;DHT22;7222;57.346;12.150;2023-02-02T15:03:34;5.40;99.90
14277;DHT22;7222;57.346;12.150;2023-02-02T15:06:05;5.10;99.90
14277;DHT22;7222;57.346;12.150;2023-02-02T15:08:33;4.90;99.90
14277;DHT22;7222;57.346;12.150;2023-02-02T15:11:04;4.70;99.90
14277;DHT22;7222;57.346;12.150;2023-02-02T15:13:50;4.60;99.90
14277;DHT22;7222;57.346;12.150;2023-02-02T15:16:22;4.40;99.90
14277;DHT22;7222;57.346;12.150;2023-02-02T15:18:58;4.30;99.90
14277;DHT22;7222;57.346;12.150;2023-02-02T15:21:31;4.20;99.90
14277;DHT22;7222;57.346;12.150;2023-02-02T15:24:00;4.00;99.90
14277;DHT22;7222;57.346;12.150;2023-02-02T15:26:33;3.80;99.90
14277;DHT22;7222;57.346;12.150;2023-02-02T15:29:05;3.60;99.90
14277;DHT22;7222;57.346;12.150;2023-02-02T15:31:36;3.40;99.90
14277;DHT22;7222;57.346;12.150;2023-02-02T15:34:12;3.10;99.90
14277;DHT22;7222;57.346;12.150;2023-02-02T15:36:43;2.90;99.90
14277;DHT22;7222;57.346;12.150;2023-02-02T15:39:18;2.80;99.90
14277;DHT22;7222;57.346;12.150;2023-02-02T15:41:49;2.70;99.90
14277;DHT22;7222;57.346;12.150;2023-02-02T15:44:38;2.50;99.90
14277;DHT22;7222;57.346;12.150;2023-02-02T15:47:10;2.40;99.90
14277;DHT22;7222;57.346;12.150;2023-02-02T15:49:38;2.20;99.90
14277;DHT22;7222;57.346;12.150;2023-02-02T15:52:11;2.10;99.90
14277;DHT22;7222;57.346;12.150;2023-02-02T15:54:48;1.90;99.90
14277;DHT22;7222;57.346;12.150;2023-02-02T15:57:27;1.90;99.90
14277;DHT22;7222;57.346;12.150;2023-02-02T15:59:55;1.80;99.90
14277;DHT22;7222;57.346;12.150;2023-02-02T16:02:29;1.70;99.90
14277;DHT22;7222;57.346;12.150;2023-02-02T16:04:57;1.60;99.90
14277;DHT22;7222;57.346;12.150;2023-02-02T16:07:28;1.50;99.90
14277;DHT22;7222;57.346;12.150;2023-02-02T16:10:01;1.50;99.90
14277;DHT22;7222;57.346;12.150;2023-02-02T16:12:30;1.40;99.90
14277;DHT22;7222;57.346;12.150;2023-02-02T16:14:58;1.20;99.90
14277;DHT22;7222;57.346;12.150;2023-02-02T16:17:27;1.10;99.90
14277;DHT22;7222;57.346;12.150;2023-02-02T16:20:01;1.00;99.90
14277;DHT22;7222;57.346;12.150;2023-02-02T16:22:33;0.90;99.90
14277;DHT22;7222;57.346;12.150;2023-02-02T16:25:04;0.80;99.90
14277;DHT22;7222;57.346;12.150;2023-02-02T16:27:34;0.70;99.90
14277;DHT22;7222;57.346;12.150;2023-02-02T16:30:05;0.70;99.90